KCEC/CEC METAR and TAF weather

Enter ICAO airport designator
Station Type Date Time Source
KCEC METAR 2018/12/18 11:56 UTC NOAA

KCEC 181156Z AUTO 18030G38KT 10SM OVC024 12/09 A3005 RMK AO2 PK WND 17041/1101 RAE26 SLP175 P0001 60007 70009 T01220094 10128 20117 58010


Station Type Date Time Source
KCEC Decoded METAR 2018/12/18 11:56 UTC NOAA

CRESCENT CITY MC NAMARA, CA, United States (KCEC) 41-47N 124-14W
Dec 18, 2018 - 06:56 AM EST / 2018.12.18 1156 UTC
Wind: from the S (180 degrees) at 35 MPH (30 KT) gusting to 44 MPH (38 KT):0
Visibility: 10 mile(s):0
Sky conditions: overcast
Precipitation last hour: 0.01 inches
Temperature: 54.0 F (12.2 C)
Dew Point: 48.9 F (9.4 C)
Relative Humidity: 82%
Pressure (altimeter): 30.05 in. Hg (1017 hPa)
Pressure tendency: 0.03 inches (1.0 hPa) lower than three hours ago
ob: KCEC 181156Z AUTO 18030G38KT 10SM OVC024 12/09 A3005 RMK AO2 PK WND 17041/1101 RAE26 SLP175 P0001 60007 70009 T01220094 10128 20117 58010
cycle: 12

Station Type Date Time Source
KCEC TAF 2018/12/18 12:52 UTC NOAA

TAF KCEC 181149Z 1812/1912 17022G38KT 5SM -RA BR FEW013 OVC026
FM181300 17025G37KT 4SM -RA BR SCT010 OVC025
FM182200 17015KT 5SM -RA BR SCT010 OVC025
FM190000 19010KT 5SM BR VCSH SCT010 BKN020 BKN050
FM190500 15005KT P6SM SCT010 BKN100


Example: see airport list